Time;durP1;ratioP1;P1;durP2;ratioP2;P2;SDS_P1;SDS_P2;PMS_P1;PMS_P2;Temp;Humidity;BMP_temperature;BMP_pressure;BME280_temperature;BME280_humidity;BME280_pressure;Samples;Min_cycle;Max_cycle;Signal;HPM_P1;HPM_P2
2021/03/24 00:00:27;;;;;;;20.53;8.20;;;;;;;;;;6145126;23;20155;-86
2021/03/24 00:03:32;;;;;;;23.67;8.83;;;;;;;;;;6164362;23;20697;-88
2021/03/24 00:06:36;;;;;;;22.77;9.57;;;;;;;;;;6145838;23;20241;-87
2021/03/24 00:09:41;;;;;;;20.47;9.47;;;;;;;;;;6147312;23;20216;-87
2021/03/24 00:12:46;;;;;;;21.03;9.50;;;;;;;;;;6146113;23;20165;-87
2021/03/24 00:15:50;;;;;;;23.37;9.30;;;;;;;;;;6145789;23;20184;-87
2021/03/24 00:18:55;;;;;;;25.07;10.03;;;;;;;;;;6146225;23;20176;-87
2021/03/24 00:22:03;;;;;;;29.73;11.40;;;;;;;;;;6146555;23;20196;-86
2021/03/24 00:25:14;;;;;;;24.13;10.13;;;;;;;;;;6145855;23;20632;-87
2021/03/24 00:28:19;;;;;;;25.50;10.40;;;;;;;;;;6147243;23;20172;-88
2021/03/24 00:31:23;;;;;;;22.43;9.47;;;;;;;;;;6146073;23;20542;-86
2021/03/24 00:34:28;;;;;;;26.43;10.13;;;;;;;;;;6147035;23;20189;-87
2021/03/24 00:37:33;;;;;;;20.10;8.97;;;;;;;;;;6145790;23;20220;-86
2021/03/24 00:40:38;;;;;;;20.93;8.33;;;;;;;;;;6146314;23;20168;-86
2021/03/24 00:43:43;;;;;;;23.20;8.87;;;;;;;;;;6147062;23;20168;-86
2021/03/24 00:46:48;;;;;;;18.93;8.13;;;;;;;;;;6163757;23;20172;-85
2021/03/24 00:49:53;;;;;;;17.37;8.17;;;;;;;;;;6148250;23;20196;-85
2021/03/24 00:52:57;;;;;;;21.27;8.23;;;;;;;;;;6148428;23;20189;-87
2021/03/24 00:56:02;;;;;;;16.17;7.90;;;;;;;;;;6146821;23;20219;-86
2021/03/24 00:59:06;;;;;;;15.23;7.90;;;;;;;;;;6147220;23;20177;-87
2021/03/24 01:02:10;;;;;;;17.80;7.70;;;;;;;;;;6146157;23;20219;-86
2021/03/24 01:05:17;;;;;;;15.47;7.13;;;;;;;;;;6145841;23;20176;-86
2021/03/24 01:08:22;;;;;;;17.07;7.90;;;;;;;;;;6146013;23;20168;-87
2021/03/24 01:11:26;;;;;;;20.87;7.90;;;;;;;;;;6148973;23;20169;-86
2021/03/24 01:14:31;;;;;;;16.57;7.80;;;;;;;;;;6148701;23;20163;-87
2021/03/24 01:17:36;;;;;;;21.57;8.53;;;;;;;;;;6149405;23;20172;-85
2021/03/24 01:20:43;;;;;;;20.13;8.17;;;;;;;;;;6148081;23;20223;-86
2021/03/24 01:23:47;;;;;;;15.90;7.93;;;;;;;;;;6148565;23;20167;-86
2021/03/24 01:26:51;;;;;;;18.87;8.07;;;;;;;;;;6148273;23;20181;-86
2021/03/24 01:29:56;;;;;;;16.37;7.53;;;;;;;;;;6149392;23;20181;-86
2021/03/24 01:33:01;;;;;;;19.47;7.50;;;;;;;;;;6149040;23;20165;-87
2021/03/24 01:36:07;;;;;;;16.73;7.20;;;;;;;;;;6147144;23;20164;-85
2021/03/24 01:39:12;;;;;;;16.97;8.07;;;;;;;;;;6148812;23;20176;-85
2021/03/24 01:42:16;;;;;;;12.20;6.87;;;;;;;;;;6149359;23;20191;-87
2021/03/24 01:45:39;;;;;;;18.90;7.43;;;;;;;;;;6149498;23;20196;-85
2021/03/24 01:48:47;;;;;;;14.93;7.30;;;;;;;;;;6149293;23;20173;-86
2021/03/24 01:51:56;;;;;;;17.13;7.53;;;;;;;;;;6149097;23;20176;-85
2021/03/24 01:55:01;;;;;;;19.03;7.87;;;;;;;;;;6156787;23;20220;-85
2021/03/24 01:58:05;;;;;;;15.37;8.03;;;;;;;;;;6163204;23;20173;-85
2021/03/24 02:01:12;;;;;;;18.33;8.20;;;;;;;;;;6155771;23;20251;-87
2021/03/24 02:04:18;;;;;;;17.43;7.90;;;;;;;;;;6164431;23;20173;-85
2021/03/24 02:07:26;;;;;;;15.60;7.77;;;;;;;;;;6153904;23;20235;-88
2021/03/24 02:10:34;;;;;;;21.83;7.97;;;;;;;;;;6147925;23;20285;-87
2021/03/24 02:13:42;;;;;;;18.37;8.07;;;;;;;;;;6148001;23;20172;-87
2021/03/24 02:16:49;;;;;;;17.07;8.07;;;;;;;;;;6148118;23;20173;-86
2021/03/24 02:19:58;;;;;;;17.17;8.40;;;;;;;;;;6148407;23;20277;-87
2021/03/24 02:23:08;;;;;;;15.67;7.80;;;;;;;;;;6147401;23;20193;-86
2021/03/24 02:26:15;;;;;;;18.93;9.60;;;;;;;;;;6146732;23;20168;-87
2021/03/24 02:29:22;;;;;;;18.63;8.90;;;;;;;;;;6145948;23;20224;-87
2021/03/24 02:32:28;;;;;;;19.80;8.67;;;;;;;;;;6146991;23;20172;-87
2021/03/24 02:35:34;;;;;;;22.77;8.57;;;;;;;;;;6147020;23;20215;-87
2021/03/24 02:38:39;;;;;;;18.33;8.53;;;;;;;;;;6147169;23;20179;-86
2021/03/24 02:41:44;;;;;;;16.43;8.37;;;;;;;;;;6145115;23;20244;-87
2021/03/24 02:44:50;;;;;;;16.97;7.87;;;;;;;;;;6146986;23;20204;-88
2021/03/24 02:47:58;;;;;;;18.33;7.63;;;;;;;;;;6146057;23;20172;-87
2021/03/24 02:51:05;;;;;;;17.60;7.37;;;;;;;;;;6147303;23;20157;-86
2021/03/24 02:54:11;;;;;;;18.43;7.90;;;;;;;;;;6146280;23;20176;-87
2021/03/24 02:57:16;;;;;;;18.77;7.97;;;;;;;;;;6165363;23;20168;-87
2021/03/24 03:00:23;;;;;;;16.23;8.00;;;;;;;;;;6147249;23;20168;-88
2021/03/24 03:03:30;;;;;;;17.07;7.23;;;;;;;;;;6149275;23;20172;-86
2021/03/24 03:06:35;;;;;;;17.57;7.70;;;;;;;;;;6147393;23;20693;-85
2021/03/24 03:09:44;;;;;;;21.10;8.50;;;;;;;;;;6146295;23;20166;-87
2021/03/24 03:12:53;;;;;;;16.47;7.63;;;;;;;;;;6148061;23;20724;-87
2021/03/24 03:16:02;;;;;;;15.83;7.83;;;;;;;;;;6148080;23;20240;-87
2021/03/24 03:19:08;;;;;;;16.83;7.40;;;;;;;;;;6148004;23;20200;-87
2021/03/24 03:22:16;;;;;;;21.43;8.70;;;;;;;;;;6145563;23;20195;-88
2021/03/24 03:25:23;;;;;;;14.70;7.60;;;;;;;;;;6163820;23;20176;-86
2021/03/24 03:28:29;;;;;;;20.57;8.70;;;;;;;;;;6146524;23;20588;-86
2021/03/24 03:31:36;;;;;;;17.90;7.83;;;;;;;;;;6145740;23;20172;-87
2021/03/24 03:34:42;;;;;;;17.13;7.90;;;;;;;;;;6145542;23;20168;-85
2021/03/24 03:37:49;;;;;;;19.80;7.73;;;;;;;;;;6146071;23;20216;-87
2021/03/24 03:40:56;;;;;;;17.50;7.43;;;;;;;;;;6144618;23;20200;-86
2021/03/24 03:44:01;;;;;;;16.20;7.50;;;;;;;;;;6146302;23;20160;-87
2021/03/24 03:47:08;;;;;;;17.90;7.23;;;;;;;;;;6146779;23;20281;-87
2021/03/24 03:50:16;;;;;;;15.37;7.43;;;;;;;;;;6164094;23;20172;-88
2021/03/24 03:53:22;;;;;;;17.20;7.60;;;;;;;;;;6145731;23;20169;-87
2021/03/24 03:56:30;;;;;;;18.63;8.50;;;;;;;;;;6145628;23;20173;-87
2021/03/24 03:59:37;;;;;;;15.07;6.97;;;;;;;;;;6145703;23;20172;-87
2021/03/24 04:02:47;;;;;;;17.97;7.27;;;;;;;;;;6146257;23;20192;-88
2021/03/24 04:05:54;;;;;;;17.67;7.57;;;;;;;;;;6145041;23;20192;-86
2021/03/24 04:09:00;;;;;;;16.80;7.63;;;;;;;;;;6145930;23;20200;-87
2021/03/24 04:12:06;;;;;;;15.40;6.90;;;;;;;;;;6145980;23;20169;-86
2021/03/24 04:15:13;;;;;;;17.37;7.80;;;;;;;;;;6145077;23;20169;-84
2021/03/24 04:18:21;;;;;;;14.70;6.23;;;;;;;;;;6146165;23;20171;-87
2021/03/24 04:21:26;;;;;;;18.33;6.80;;;;;;;;;;6145366;23;20244;-88
2021/03/24 04:24:33;;;;;;;13.83;6.93;;;;;;;;;;6145596;23;20172;-87
2021/03/24 04:27:38;;;;;;;19.17;7.37;;;;;;;;;;6144887;23;20172;-87
2021/03/24 04:30:48;;;;;;;16.43;7.23;;;;;;;;;;6145238;23;20175;-87
2021/03/24 04:33:54;;;;;;;16.40;7.20;;;;;;;;;;6145166;23;20235;-87
2021/03/24 04:37:01;;;;;;;14.40;6.97;;;;;;;;;;6145313;23;20220;-87
2021/03/24 04:40:07;;;;;;;14.63;7.10;;;;;;;;;;6146884;23;20241;-86
2021/03/24 04:43:13;;;;;;;16.27;7.40;;;;;;;;;;6145233;23;20220;-86
2021/03/24 04:46:20;;;;;;;19.83;7.83;;;;;;;;;;6145520;23;20171;-85
2021/03/24 04:49:26;;;;;;;18.03;7.90;;;;;;;;;;6146345;23;20509;-87
2021/03/24 04:52:32;;;;;;;17.67;8.30;;;;;;;;;;6146313;23;20616;-87
2021/03/24 04:55:37;;;;;;;18.60;8.40;;;;;;;;;;6163615;23;20168;-87
2021/03/24 04:58:45;;;;;;;22.13;7.77;;;;;;;;;;6145162;23;20172;-87
2021/03/24 05:02:00;;;;;;;22.20;8.17;;;;;;;;;;6145527;23;20197;-87
2021/03/24 05:05:11;;;;;;;24.23;9.23;;;;;;;;;;6145089;23;20180;-87
2021/03/24 05:08:18;;;;;;;22.63;8.30;;;;;;;;;;6146066;23;20168;-87
2021/03/24 05:11:27;;;;;;;22.73;8.77;;;;;;;;;;6146928;23;20177;-87
2021/03/24 05:14:34;;;;;;;19.53;7.63;;;;;;;;;;6146763;23;20180;-87
2021/03/24 05:17:44;;;;;;;20.83;8.30;;;;;;;;;;6146490;23;20519;-87
2021/03/24 05:20:53;;;;;;;20.70;8.03;;;;;;;;;;6145998;23;20177;-86
2021/03/24 05:23:59;;;;;;;21.03;9.47;;;;;;;;;;6146631;23;20172;-86
2021/03/24 05:27:06;;;;;;;26.17;9.07;;;;;;;;;;6145566;23;20176;-86
2021/03/24 05:30:17;;;;;;;21.17;9.40;;;;;;;;;;6164919;23;20156;-87
2021/03/24 05:33:24;;;;;;;38.97;10.77;;;;;;;;;;6129859;23;20172;-87
2021/03/24 05:36:32;;;;;;;36.33;10.43;;;;;;;;;;6145754;23;20172;-87
2021/03/24 05:39:38;;;;;;;22.03;8.90;;;;;;;;;;6145374;23;20176;-87
2021/03/24 05:42:54;;;;;;;32.30;8.23;;;;;;;;;;6150570;23;20196;-87
2021/03/24 05:46:03;;;;;;;20.30;8.50;;;;;;;;;;6147981;23;20172;-87
2021/03/24 05:49:15;;;;;;;27.90;8.40;;;;;;;;;;6148761;23;20172;-86
2021/03/24 05:52:38;;;;;;;31.17;8.73;;;;;;;;;;6148102;23;20164;-86
2021/03/24 05:55:47;;;;;;;16.60;8.27;;;;;;;;;;6145894;23;20192;-85
2021/03/24 05:58:56;;;;;;;18.23;8.43;;;;;;;;;;6148688;23;20173;-86
2021/03/24 06:02:04;;;;;;;16.53;8.40;;;;;;;;;;6148550;23;20196;-86
2021/03/24 06:05:10;;;;;;;31.27;9.33;;;;;;;;;;6147607;23;20513;-85
2021/03/24 06:08:29;;;;;;;25.20;8.87;;;;;;;;;;6149242;23;20176;-86
2021/03/24 06:11:52;;;;;;;21.87;9.43;;;;;;;;;;6149835;23;20177;-86
2021/03/24 06:15:10;;;;;;;22.13;8.80;;;;;;;;;;6148938;23;20165;-87
2021/03/24 06:18:30;;;;;;;25.57;9.10;;;;;;;;;;6148691;23;20192;-87
2021/03/24 06:21:40;;;;;;;20.90;9.13;;;;;;;;;;6121345;23;20185;-87
2021/03/24 06:24:54;;;;;;;18.53;8.20;;;;;;;;;;6148378;23;20157;-86
2021/03/24 06:28:13;;;;;;;20.80;8.27;;;;;;;;;;6150273;23;20171;-87
2021/03/24 06:31:34;;;;;;;24.00;9.37;;;;;;;;;;6146944;23;20509;-86
2021/03/24 06:34:54;;;;;;;21.00;8.50;;;;;;;;;;6145631;23;20172;-87
2021/03/24 06:38:07;;;;;;;21.07;7.70;;;;;;;;;;6148033;23;20439;-87
2021/03/24 06:41:14;;;;;;;22.40;8.10;;;;;;;;;;6147270;23;20181;-85
2021/03/24 06:44:37;;;;;;;19.90;8.07;;;;;;;;;;6147866;23;20172;-86
2021/03/24 06:47:47;;;;;;;16.53;7.27;;;;;;;;;;6145649;23;20625;-85
2021/03/24 06:51:19;;;;;;;20.27;8.43;;;;;;;;;;6148005;23;20185;-85
2021/03/24 06:54:39;;;;;;;22.40;8.33;;;;;;;;;;6101068;23;20184;-85
2021/03/24 06:57:57;;;;;;;20.40;8.80;;;;;;;;;;6147147;23;20172;-87
2021/03/24 07:01:33;;;;;;;18.57;8.37;;;;;;;;;;6149140;23;20156;-86
2021/03/24 07:05:02;;;;;;;20.80;8.20;;;;;;;;;;6151508;23;20164;-87
2021/03/24 07:08:25;;;;;;;19.63;8.73;;;;;;;;;;6149700;23;20164;-88
2021/03/24 07:11:40;;;;;;;19.97;8.97;;;;;;;;;;6148900;23;20172;-86
2021/03/24 07:15:03;;;;;;;17.23;8.70;;;;;;;;;;6148637;23;20172;-87
2021/03/24 07:18:28;;;;;;;19.20;8.63;;;;;;;;;;6149272;23;20500;-86
2021/03/24 07:21:53;;;;;;;19.47;9.03;;;;;;;;;;6149339;23;20225;-86
2021/03/24 07:25:18;;;;;;;20.77;9.07;;;;;;;;;;6151586;23;20177;-85
2021/03/24 07:28:40;;;;;;;22.53;9.33;;;;;;;;;;6152793;23;20168;-86
2021/03/24 07:31:53;;;;;;;38.47;16.43;;;;;;;;;;6149505;23;20187;-87
2021/03/24 07:35:04;;;;;;;19.23;9.67;;;;;;;;;;6150594;23;20197;-88
2021/03/24 07:38:28;;;;;;;20.17;9.20;;;;;;;;;;6146904;23;20205;-85
2021/03/24 07:41:48;;;;;;;25.03;9.40;;;;;;;;;;6147130;23;20168;-87
2021/03/24 07:45:08;;;;;;;28.90;12.00;;;;;;;;;;6146493;23;20239;-87
2021/03/24 07:48:17;;;;;;;19.33;9.70;;;;;;;;;;6151241;23;20173;-88
2021/03/24 07:51:25;;;;;;;21.63;9.90;;;;;;;;;;6147542;23;20181;-87
2021/03/24 07:54:34;;;;;;;48.50;22.17;;;;;;;;;;6147268;23;20169;-87
2021/03/24 07:57:44;;;;;;;38.80;20.10;;;;;;;;;;6148518;23;20211;-88
2021/03/24 08:00:51;;;;;;;57.47;14.43;;;;;;;;;;6149332;23;20176;-87
2021/03/24 08:04:00;;;;;;;28.70;11.67;;;;;;;;;;6147988;23;20172;-86
2021/03/24 08:07:14;;;;;;;28.00;11.37;;;;;;;;;;6146544;23;20239;-87
2021/03/24 08:10:23;;;;;;;46.63;14.90;;;;;;;;;;6147715;23;20668;-87
2021/03/24 08:13:36;;;;;;;26.30;11.57;;;;;;;;;;6145787;23;20237;-87
2021/03/24 08:17:02;;;;;;;27.53;11.37;;;;;;;;;;6149197;23;20204;-88
2021/03/24 08:20:19;;;;;;;35.17;12.40;;;;;;;;;;6150592;23;20241;-87
2021/03/24 08:23:34;;;;;;;29.17;11.97;;;;;;;;;;6150675;23;20175;-87
2021/03/24 08:26:42;;;;;;;26.67;12.00;;;;;;;;;;6169444;23;20173;-86
2021/03/24 08:29:53;;;;;;;37.30;12.10;;;;;;;;;;6169389;23;20200;-88
2021/03/24 08:33:16;;;;;;;30.17;12.63;;;;;;;;;;6168823;23;20164;-87
2021/03/24 08:36:30;;;;;;;27.83;11.83;;;;;;;;;;6150238;23;20168;-87
2021/03/24 08:39:53;;;;;;;33.60;13.00;;;;;;;;;;6150515;23;20496;-86
2021/03/24 08:43:06;;;;;;;26.90;11.80;;;;;;;;;;6166485;23;20176;-87
2021/03/24 08:46:15;;;;;;;36.03;12.53;;;;;;;;;;6149271;23;20189;-89
2021/03/24 08:49:21;;;;;;;49.38;13.65;;;;;;;;;;6147392;23;20176;-87
2021/03/24 08:52:36;;;;;;;34.60;13.57;;;;;;;;;;6147749;23;20164;-86
2021/03/24 08:55:47;;;;;;;33.13;13.48;;;;;;;;;;6148657;23;20184;-87
2021/03/24 08:59:01;;;;;;;51.30;15.65;;;;;;;;;;6149026;23;20196;-87
2021/03/24 09:02:20;;;;;;;33.78;14.55;;;;;;;;;;6147571;23;20210;-88
2021/03/24 09:05:27;;;;;;;53.60;16.17;;;;;;;;;;6145448;23;20169;-87
2021/03/24 09:08:34;;;;;;;35.20;14.48;;;;;;;;;;6155146;23;20216;-85
2021/03/24 09:11:42;;;;;;;35.95;15.00;;;;;;;;;;6150313;23;20180;-88
2021/03/24 09:14:52;;;;;;;28.40;13.85;;;;;;;;;;6146460;23;20164;-89
2021/03/24 09:18:09;;;;;;;39.38;14.23;;;;;;;;;;6145566;23;20169;-88
2021/03/24 09:21:14;;;;;;;37.58;15.30;;;;;;;;;;6145678;23;20177;-88
2021/03/24 09:24:37;;;;;;;35.90;14.90;;;;;;;;;;6146270;23;20169;-88
2021/03/24 09:28:00;;;;;;;42.75;16.15;;;;;;;;;;6145392;23;20494;-87
2021/03/24 09:31:11;;;;;;;36.30;15.13;;;;;;;;;;6146796;23;20173;-87
2021/03/24 09:34:26;;;;;;;34.88;14.38;;;;;;;;;;6146826;23;20179;-86
2021/03/24 09:37:32;;;;;;;35.28;15.32;;;;;;;;;;6147720;23;20169;-87
2021/03/24 09:40:40;;;;;;;34.05;16.50;;;;;;;;;;6154844;23;20169;-86
2021/03/24 09:43:47;;;;;;;38.97;14.70;;;;;;;;;;6130242;23;20646;-86
2021/03/24 09:46:53;;;;;;;44.50;15.18;;;;;;;;;;6146405;23;20173;-87
2021/03/24 09:50:03;;;;;;;35.47;15.27;;;;;;;;;;6165527;23;20196;-87
2021/03/24 09:53:13;;;;;;;41.28;15.95;;;;;;;;;;6147972;23;20217;-88
2021/03/24 09:56:20;;;;;;;40.00;15.13;;;;;;;;;;6146602;23;20172;-87
2021/03/24 09:59:29;;;;;;;41.92;15.90;;;;;;;;;;6144990;23;20188;-88
2021/03/24 10:02:35;;;;;;;40.95;16.50;;;;;;;;;;6147560;23;20582;-86
2021/03/24 10:05:44;;;;;;;39.10;15.80;;;;;;;;;;6149724;23;20191;-85
2021/03/24 10:08:52;;;;;;;46.65;17.00;;;;;;;;;;6135403;23;20201;-86
2021/03/24 10:12:02;;;;;;;35.53;15.73;;;;;;;;;;6150564;23;20227;-87
2021/03/24 10:15:14;;;;;;;41.58;16.88;;;;;;;;;;6148435;23;20168;-85
2021/03/24 10:18:24;;;;;;;38.83;17.60;;;;;;;;;;6150445;23;20173;-88
2021/03/24 10:21:33;;;;;;;36.67;15.20;;;;;;;;;;6148241;23;20196;-87
2021/03/24 10:24:43;;;;;;;36.17;16.15;;;;;;;;;;6147545;23;20172;-88
2021/03/24 10:27:49;;;;;;;51.40;17.45;;;;;;;;;;6149288;23;20196;-87
2021/03/24 10:30:57;;;;;;;50.72;16.42;;;;;;;;;;6149138;23;20227;-88
2021/03/24 10:34:03;;;;;;;44.30;16.77;;;;;;;;;;6149353;23;20144;-88
2021/03/24 10:37:12;;;;;;;35.35;16.20;;;;;;;;;;6147988;23;20225;-87
2021/03/24 10:40:21;;;;;;;37.95;16.13;;;;;;;;;;6148412;23;20266;-89
2021/03/24 10:43:29;;;;;;;39.33;16.73;;;;;;;;;;6148015;23;20259;-85
2021/03/24 10:46:38;;;;;;;35.85;17.33;;;;;;;;;;6153284;23;20209;-85
2021/03/24 10:49:50;;;;;;;32.45;16.23;;;;;;;;;;6154784;23;20173;-86
2021/03/24 10:53:05;;;;;;;27.67;14.73;;;;;;;;;;6151324;23;20173;-86
2021/03/24 10:56:26;;;;;;;29.05;16.63;;;;;;;;;;6148531;23;20176;-87
2021/03/24 10:59:34;;;;;;;32.40;16.63;;;;;;;;;;6146992;23;20235;-87
2021/03/24 11:02:42;;;;;;;39.03;16.92;;;;;;;;;;6149101;23;20205;-86
2021/03/24 11:05:50;;;;;;;36.25;17.70;;;;;;;;;;6149776;23;20208;-85
2021/03/24 11:08:59;;;;;;;35.38;17.88;;;;;;;;;;6150832;23;20216;-86
2021/03/24 11:12:05;;;;;;;35.80;17.17;;;;;;;;;;6151040;23;20247;-87
2021/03/24 11:18:52;;;;;;;31.17;16.13;;;;;;;;;;6150002;23;20167;-87
2021/03/24 11:22:13;;;;;;;34.47;17.58;;;;;;;;;;6157904;23;20152;-87
2021/03/24 11:25:22;;;;;;;33.00;17.20;;;;;;;;;;6151450;23;20175;-87
2021/03/24 11:28:31;;;;;;;46.53;18.77;;;;;;;;;;6150707;23;20181;-88
2021/03/24 11:31:49;;;;;;;36.47;18.45;;;;;;;;;;6153961;23;20173;-87
2021/03/24 11:34:55;;;;;;;38.53;18.85;;;;;;;;;;6151828;23;20165;-86
2021/03/24 11:38:07;;;;;;;40.92;19.45;;;;;;;;;;6150289;23;20601;-87
2021/03/24 11:41:14;;;;;;;35.92;18.13;;;;;;;;;;6149598;23;20221;-85
2021/03/24 11:44:19;;;;;;;32.63;17.23;;;;;;;;;;6150783;23;20156;-89
2021/03/24 11:47:32;;;;;;;33.50;17.55;;;;;;;;;;6148507;23;20264;-86
2021/03/24 11:50:41;;;;;;;33.55;17.73;;;;;;;;;;6158369;23;20169;-88
2021/03/24 11:53:55;;;;;;;31.10;18.02;;;;;;;;;;6150110;23;20242;-85
2021/03/24 11:57:17;;;;;;;34.22;18.48;;;;;;;;;;6149106;23;20201;-88
2021/03/24 12:00:39;;;;;;;33.78;18.30;;;;;;;;;;6149110;23;20268;-86
2021/03/24 12:03:51;;;;;;;32.38;18.05;;;;;;;;;;6149108;23;20176;-89
2021/03/24 12:07:04;;;;;;;32.42;18.58;;;;;;;;;;6168453;23;20192;-88
2021/03/24 12:10:25;;;;;;;39.28;22.77;;;;;;;;;;6149973;23;20176;-88
2021/03/24 12:13:31;;;;;;;35.60;18.35;;;;;;;;;;6150164;23;20268;-88
2021/03/24 12:16:45;;;;;;;37.17;18.67;;;;;;;;;;6149577;23;20244;-86
2021/03/24 12:19:49;;;;;;;34.50;18.52;;;;;;;;;;6150345;23;20521;-89
2021/03/24 12:22:55;;;;;;;34.42;18.77;;;;;;;;;;6152149;23;20221;-87
2021/03/24 12:26:02;;;;;;;32.88;17.98;;;;;;;;;;6150113;23;20169;-87
2021/03/24 12:29:08;;;;;;;40.13;18.63;;;;;;;;;;6150550;23;20169;-86
2021/03/24 12:32:22;;;;;;;39.13;19.27;;;;;;;;;;6148936;23;20249;-88
2021/03/24 12:35:28;;;;;;;41.95;18.70;;;;;;;;;;6169833;23;20238;-84
2021/03/24 12:38:39;;;;;;;38.22;18.75;;;;;;;;;;6149457;23;20177;-87
2021/03/24 12:41:44;;;;;;;42.35;20.58;;;;;;;;;;6150649;23;20176;-86
2021/03/24 12:44:50;;;;;;;32.63;18.88;;;;;;;;;;6150737;23;20259;-86
2021/03/24 12:48:03;;;;;;;34.63;18.40;;;;;;;;;;6152161;23;20213;-87
2021/03/24 12:51:11;;;;;;;36.72;20.48;;;;;;;;;;6150552;23;20168;-87
2021/03/24 12:54:18;;;;;;;41.67;19.63;;;;;;;;;;6149994;23;20179;-87
2021/03/24 12:57:32;;;;;;;33.30;17.75;;;;;;;;;;6151339;23;20165;-89
2021/03/24 13:00:48;;;;;;;39.28;18.80;;;;;;;;;;6149469;23;20648;-88
2021/03/24 13:04:12;;;;;;;35.08;19.08;;;;;;;;;;6153687;23;20250;-88
2021/03/24 13:07:25;;;;;;;32.78;18.48;;;;;;;;;;6150726;23;20196;-89
2021/03/24 13:10:43;;;;;;;31.50;18.20;;;;;;;;;;6150777;23;20185;-88
2021/03/24 13:13:52;;;;;;;32.95;18.35;;;;;;;;;;6150480;23;20668;-88
2021/03/24 13:17:00;;;;;;;35.92;18.42;;;;;;;;;;6151040;23;20215;-87
2021/03/24 13:20:25;;;;;;;32.47;18.48;;;;;;;;;;6150405;23;20180;-88
2021/03/24 13:23:33;;;;;;;33.47;18.40;;;;;;;;;;6151579;23;20169;-88
2021/03/24 13:26:40;;;;;;;32.10;17.77;;;;;;;;;;6150913;23;20253;-88
2021/03/24 13:29:47;;;;;;;38.63;18.52;;;;;;;;;;6150779;23;20188;-88
2021/03/24 13:32:55;;;;;;;38.38;18.77;;;;;;;;;;6149211;23;20200;-88
2021/03/24 13:36:05;;;;;;;65.13;19.48;;;;;;;;;;6150909;23;20172;-88
2021/03/24 13:39:14;;;;;;;30.77;17.95;;;;;;;;;;6150342;23;20168;-89
2021/03/24 13:42:25;;;;;;;33.70;18.27;;;;;;;;;;6150995;23;20200;-86
2021/03/24 13:45:35;;;;;;;32.88;18.75;;;;;;;;;;6150541;23;20212;-88
2021/03/24 13:48:42;;;;;;;32.42;18.17;;;;;;;;;;6150557;23;20176;-89
2021/03/24 13:51:48;;;;;;;32.67;18.33;;;;;;;;;;6151362;23;20224;-87
2021/03/24 13:55:01;;;;;;;30.17;17.30;;;;;;;;;;6149780;23;20169;-87
2021/03/24 13:58:12;;;;;;;39.28;18.38;;;;;;;;;;6149445;23;20193;-88
2021/03/24 14:01:19;;;;;;;33.42;19.20;;;;;;;;;;6148993;23;20220;-88
2021/03/24 14:04:33;;;;;;;34.15;17.95;;;;;;;;;;6152521;23;20229;-88
2021/03/24 14:07:43;;;;;;;32.65;17.83;;;;;;;;;;6170337;23;20172;-87
2021/03/24 14:10:50;;;;;;;29.17;17.63;;;;;;;;;;6153455;23;20912;-87
2021/03/24 14:14:02;;;;;;;31.67;17.17;;;;;;;;;;6152222;23;20265;-88
2021/03/24 14:17:10;;;;;;;32.92;18.17;;;;;;;;;;6154843;23;20177;-87
2021/03/24 14:20:21;;;;;;;31.02;18.05;;;;;;;;;;6155253;23;20175;-87
2021/03/24 14:23:38;;;;;;;32.85;18.55;;;;;;;;;;6173733;23;20164;-88
2021/03/24 14:26:46;;;;;;;34.33;18.30;;;;;;;;;;6154996;23;20168;-87
2021/03/24 14:29:54;;;;;;;31.52;18.38;;;;;;;;;;6153878;23;20234;-88
2021/03/24 14:33:04;;;;;;;34.60;18.33;;;;;;;;;;6155226;23;20241;-88
2021/03/24 14:36:10;;;;;;;31.35;17.70;;;;;;;;;;6155450;23;20175;-89
2021/03/24 14:39:26;;;;;;;35.17;17.95;;;;;;;;;;6156143;23;20169;-87
2021/03/24 14:42:39;;;;;;;29.20;15.52;;;;;;;;;;6173645;23;20543;-89
2021/03/24 14:45:50;;;;;;;33.63;16.75;;;;;;;;;;6152349;23;20221;-88
2021/03/24 14:49:01;;;;;;;37.63;20.00;;;;;;;;;;6152476;23;20165;-87
2021/03/24 14:52:09;;;;;;;31.58;16.65;;;;;;;;;;6152387;23;20197;-89
2021/03/24 14:55:25;;;;;;;31.13;16.10;;;;;;;;;;6151093;23;20196;-88
2021/03/24 14:58:46;;;;;;;31.65;16.85;;;;;;;;;;6149634;23;20616;-88
2021/03/24 15:01:50;;;;;;;30.13;15.40;;;;;;;;;;6152622;23;20176;-86
2021/03/24 15:04:56;;;;;;;32.63;17.70;;;;;;;;;;6169434;23;20215;-88
2021/03/24 15:08:17;;;;;;;35.95;17.17;;;;;;;;;;6152797;23;20180;-88
2021/03/24 15:11:43;;;;;;;34.25;16.45;;;;;;;;;;6156137;23;20176;-89
2021/03/24 15:15:12;;;;;;;33.25;16.70;;;;;;;;;;6153168;23;20172;-88
2021/03/24 15:18:20;;;;;;;30.92;17.48;;;;;;;;;;6153627;23;20628;-88
2021/03/24 15:21:27;;;;;;;35.28;16.50;;;;;;;;;;6153432;23;20242;-89
2021/03/24 15:24:40;;;;;;;35.58;16.27;;;;;;;;;;6152147;23;20231;-87
2021/03/24 15:27:57;;;;;;;36.95;16.50;;;;;;;;;;6152444;23;20217;-88
2021/03/24 15:31:24;;;;;;;32.95;15.93;;;;;;;;;;6156844;23;20197;-87
2021/03/24 15:34:37;;;;;;;33.67;16.60;;;;;;;;;;6152105;23;20304;-87
2021/03/24 15:37:47;;;;;;;33.17;15.15;;;;;;;;;;6170400;23;20197;-87
2021/03/24 15:41:03;;;;;;;34.58;17.50;;;;;;;;;;6150979;23;20212;-88
2021/03/24 15:44:12;;;;;;;30.27;16.13;;;;;;;;;;6152227;23;20173;-88
2021/03/24 15:47:30;;;;;;;34.80;16.00;;;;;;;;;;6150726;23;20168;-87
2021/03/24 15:50:37;;;;;;;35.90;17.02;;;;;;;;;;6151133;23;20241;-85
2021/03/24 15:53:44;;;;;;;32.83;15.70;;;;;;;;;;6151474;23;20247;-87
2021/03/24 15:57:07;;;;;;;38.13;17.38;;;;;;;;;;6149902;23;20179;-88
2021/03/24 16:00:14;;;;;;;33.13;16.35;;;;;;;;;;6148932;23;20168;-87
2021/03/24 16:03:28;;;;;;;37.03;17.40;;;;;;;;;;6148489;23;20232;-87
2021/03/24 16:06:38;;;;;;;37.58;16.83;;;;;;;;;;6149557;23;20280;-87
2021/03/24 16:09:46;;;;;;;45.45;17.63;;;;;;;;;;6151696;23;20553;-87
2021/03/24 16:12:54;;;;;;;35.50;17.35;;;;;;;;;;6150264;23;20224;-86
2021/03/24 16:16:03;;;;;;;33.10;16.73;;;;;;;;;;6150538;23;20172;-87
2021/03/24 16:19:23;;;;;;;35.90;16.90;;;;;;;;;;6150641;23;20180;-87
2021/03/24 16:22:47;;;;;;;39.05;17.25;;;;;;;;;;6151418;23;20172;-88
2021/03/24 16:25:57;;;;;;;38.90;18.10;;;;;;;;;;6152018;23;20275;-87
2021/03/24 16:29:03;;;;;;;38.55;17.70;;;;;;;;;;6151602;23;20172;-88
2021/03/24 16:32:29;;;;;;;38.22;17.38;;;;;;;;;;6151581;23;20185;-87
2021/03/24 16:35:53;;;;;;;40.38;17.05;;;;;;;;;;6152988;23;20169;-87
2021/03/24 16:39:14;;;;;;;40.28;16.38;;;;;;;;;;6151539;23;20217;-87
2021/03/24 16:42:26;;;;;;;40.33;17.17;;;;;;;;;;6150514;23;20243;-88
2021/03/24 16:45:44;;;;;;;41.25;17.77;;;;;;;;;;6152717;23;20189;-88
2021/03/24 16:49:07;;;;;;;40.10;17.52;;;;;;;;;;6152183;23;20201;-88
2021/03/24 16:52:23;;;;;;;42.45;18.77;;;;;;;;;;6151603;23;20189;-88
2021/03/24 16:55:30;;;;;;;39.38;18.15;;;;;;;;;;6151438;23;20176;-86
2021/03/24 16:58:42;;;;;;;40.30;17.23;;;;;;;;;;6150921;23;20172;-87
2021/03/24 17:01:50;;;;;;;42.22;18.55;;;;;;;;;;6156208;23;20230;-88
2021/03/24 17:04:59;;;;;;;46.40;19.55;;;;;;;;;;6156529;23;20217;-88
2021/03/24 17:40:26;;;;;;;46.13;18.17;;;;;;;;;;6149700;22;20215;-89
2021/03/24 17:43:43;;;;;;;44.47;17.58;;;;;;;;;;6212499;23;20187;-89
2021/03/24 17:46:49;;;;;;;53.70;20.08;;;;;;;;;;6210226;23;20195;-89
2021/03/24 17:49:57;;;;;;;39.72;17.77;;;;;;;;;;6210612;23;20502;-88
2021/03/24 17:53:11;;;;;;;41.38;17.38;;;;;;;;;;6232961;23;20337;-89
2021/03/24 17:56:20;;;;;;;41.58;18.00;;;;;;;;;;6214365;23;20171;-88
2021/03/24 17:59:41;;;;;;;51.43;18.60;;;;;;;;;;6229676;23;20176;-88
2021/03/24 18:02:53;;;;;;;42.00;17.13;;;;;;;;;;6210771;23;20230;-88
2021/03/24 18:06:03;;;;;;;40.07;16.57;;;;;;;;;;6211665;23;20202;-86
2021/03/24 18:09:09;;;;;;;39.90;16.50;;;;;;;;;;6232138;23;20225;-88
2021/03/24 18:12:22;;;;;;;37.60;16.50;;;;;;;;;;6212230;23;20261;-87
2021/03/24 18:15:35;;;;;;;46.77;17.80;;;;;;;;;;6228867;22;20171;-88
2021/03/24 18:18:42;;;;;;;43.43;17.53;;;;;;;;;;6210968;23;20159;-87
2021/03/24 18:21:47;;;;;;;40.53;17.83;;;;;;;;;;6210528;23;20175;-87
2021/03/24 18:24:59;;;;;;;49.67;19.53;;;;;;;;;;6211588;23;20183;-87
2021/03/24 18:28:09;;;;;;;41.40;17.67;;;;;;;;;;6210861;23;20167;-88
2021/03/24 18:31:18;;;;;;;40.63;17.67;;;;;;;;;;6211333;23;20166;-88
2021/03/24 18:34:26;;;;;;;43.33;17.33;;;;;;;;;;6212060;23;20178;-88
2021/03/24 18:37:31;;;;;;;39.43;16.60;;;;;;;;;;6210441;23;20227;-88
2021/03/24 18:40:36;;;;;;;42.70;18.37;;;;;;;;;;6214566;23;20194;-88
2021/03/24 18:43:43;;;;;;;45.97;17.77;;;;;;;;;;6228823;22;20214;-87
2021/03/24 18:46:50;;;;;;;47.43;18.40;;;;;;;;;;6231007;23;20198;-87
2021/03/24 18:49:56;;;;;;;49.57;19.53;;;;;;;;;;6233249;23;20158;-87
2021/03/24 18:53:02;;;;;;;45.60;18.00;;;;;;;;;;6229999;23;20191;-89
2021/03/24 18:56:09;;;;;;;46.03;18.13;;;;;;;;;;6233400;23;20171;-87
2021/03/24 18:59:19;;;;;;;44.17;19.00;;;;;;;;;;6231491;23;20556;-88
2021/03/24 19:02:30;;;;;;;53.47;21.17;;;;;;;;;;6226872;23;20239;-87
2021/03/24 19:05:35;;;;;;;50.93;21.23;;;;;;;;;;6227821;23;20216;-87
2021/03/24 19:08:41;;;;;;;53.00;20.50;;;;;;;;;;6228590;23;20159;-86